This is the latest recevied weather packets stored in our database for station/object F8BJE-13. If no packets are shown the sender has not sent any weather packets the latest 10 day(s).
| Time | Temp. | Humidity | Pressure | Rain* | Wind** | Luminosity | Snow |
|---|---|---|---|---|---|---|---|
| 1787556603 | 19.44° C | 52% | 1018.9 hPa | 0 mm | - | - | - |
| 1787554803 | 16.11° C | 57% | 1019.1 hPa | 0 mm | - | - | - |
| 1787553003 | 17.22° C | 56% | 1019 hPa | 0 mm | - | - | - |
| 1787551203 | 14.44° C | 64% | 1019 hPa | 0 mm | - | - | - |
| 1787549403 | 13.89° C | 65% | 1019.2 hPa | 0 mm | - | - | - |
| 1787547603 | 13.33° C | 66% | 1019.5 hPa | 0 mm | - | - | - |
| 1787545803 | 13.33° C | 66% | 1019.3 hPa | 0 mm | - | - | - |
| 1787544003 | 13.89° C | 65% | 1019 hPa | 0 mm | - | - | - |
| 1787542203 | 14.44° C | 65% | 1019.3 hPa | 0 mm | - | - | - |
| 1787540403 | 14.44° C | 65% | 1019.3 hPa | 0 mm | - | - | - |
| 1787538603 | 14.44° C | 61% | 1019.6 hPa | 0 mm | - | - | - |
| 1787536803 | 15° C | 60% | 1019.6 hPa | 0 mm | - | - | - |
| 1787535003 | 15° C | 56% | 1019.8 hPa | 0 mm | - | - | - |
| 1787533203 | 15° C | 55% | 1019.5 hPa | 0 mm | - | - | - |
| 1787531403 | 15° C | 55% | 1019.8 hPa | 0 mm | - | - | - |
| 1787529603 | 15.56° C | 55% | 1020 hPa | 0 mm | - | - | - |
| 1787527803 | 15.56° C | 54% | 1020.3 hPa | 0 mm | - | - | - |
| 1787526003 | 15.56° C | 53% | 1020.4 hPa | 0 mm | - | - | - |
| 1787524203 | 16.11° C | 51% | 1020.4 hPa | 0 mm | - | - | - |
| 1787522403 | 16.67° C | 50% | 1020.6 hPa | 0 mm | - | - | - |
| 1787520603 | 17.22° C | 50% | 1020.6 hPa | 0 mm | - | - | - |
| 1787518803 | 17.22° C | 49% | 1020.8 hPa | 0 mm | - | - | - |
| 1787517003 | 17.78° C | 48% | 1020.9 hPa | 0 mm | - | - | - |
| 1787515203 | 18.33° C | 45% | 1020.9 hPa | 0 mm | - | - | - |
| 1787513403 | 19.44° C | 42% | 1020.8 hPa | 0 mm | - | - | - |
* Rain latest hour (hover to see other rain measurements)
** Current wind speed in m/s (hover to see current wind gust speed)